Azamara Quest — V7DM6 — position and weather

sailwx.info

Track history (hours):
 
Tides and Currents Weather Stations Pressure Air Temp Water Temp Dewpoint Dewpoint Depression Visibility Wind Speed Wind Dir Waves Ship Positions

Azamara Quest

Last reported at 2020-Apr-02 21:25 UTC. Time now 2020-Apr-02 22:26 UTC.
Position N 60°19' E 028°44'.

Length 184 m; draft 7 m.

Type: Tanker. MMSI: 538005401.

Date/timePositionNaut miles runAvg speedWind from/ knotsBaromVisibWave heightAir tempDewpointWater temp
2020-Apr-02 21:25N 60°19' E 028°44'0 0.0
2020-Apr-02 20:55N 60°19' E 028°44'0 0.0
2020-Apr-02 19:19N 60°19' E 028°44'0 0.0
2020-Apr-02 18:55N 60°19' E 028°44'0 0.0
2020-Apr-02 18:28N 60°19' E 028°44'0 0.0
2020-Apr-02 15:31N 60°19' E 028°44'10 5.0
2020-Apr-02 13:31N 60°09' E 028°39'10 6.3
2020-Apr-02 11:59N 60°01' E 028°29'0 0.0
2020-Apr-02 10:59N 60°01' E 028°29'0 0.0
2020-Apr-02 10:29N 60°01' E 028°29'0 0.0
2020-Apr-02 09:29N 60°01' E 028°29'0 0.0
2020-Apr-02 07:59N 60°01' E 028°29'0 0.0
2020-Apr-02 07:26N 60°01' E 028°29'2 1.1
2020-Apr-02 05:31N 60°03' E 028°26'29 9.7
2020-Apr-02 02:31N 60°05' E 027°28'611.3
2020-Apr-02 02:01N 60°03' E 027°18'3110.5
2020-Apr-01 23:01N 59°56' E 026°16'510.7
2020-Apr-01 22:30N 59°55' E 026°06'1110.9
2020-Apr-01 21:30N 59°52' E 025°45'610.9
2020-Apr-01 21:00N 59°51' E 025°34'2510.0
2020-Apr-01 18:31N 59°40' E 024°49'510.0
2020-Apr-01 18:01N 59°35' E 024°49'1 0.7
2020-Apr-01 17:00N 59°35' E 024°50'0 0.0
2020-Apr-01 16:24N 59°35' E 024°50'0 0.0
2020-Apr-01 10:30N 59°35' E 024°49'24 9.6
2020-Apr-01 08:00N 59°39' E 024°02'711.3
2020-Apr-01 07:24N 59°37' E 023°49'30112.1
2020-Mar-31 06:30N 56°09' E 016°59'1711.5
2020-Mar-31 05:00N 55°59' E 016°34'611.5
2020-Mar-31 04:30N 55°56' E 016°25'1211.9
2020-Mar-31 03:30N 55°50' E 016°07'3012.0
2020-Mar-31 01:00N 55°35' E 015°20'1812.0
2020-Mar-30 23:30N 55°27' E 014°51'6510.8
2020-Mar-30 17:30N 55°14' E 012°60'1211.6
2020-Mar-30 16:30N 55°17' E 012°40'19 9.7
2020-Mar-30 14:30N 55°36' E 012°51'5 9.1
2020-Mar-30 14:00N 55°39' E 012°56'2814.2
2020-Mar-30 12:01N 56°05' E 012°36'7710.0
2020-Mar-30 04:17N 57°14' E 011°33'2410.4
2020-Mar-30 02:00N 57°34' E 011°10'611.1
2020-Mar-30 01:30N 57°38' E 011°03'4010.0
2020-Mar-29 21:30N 57°48' E 009°50'1110.5
2020-Mar-29 20:30N 57°44' E 009°32'6310.5
2020-Mar-29 14:27N 57°06' E 007°58'275 9.1
2020-Mar-28 08:09N 53°16' E 003°35'2111.8
2020-Mar-28 06:19N 52°56' E 003°21'1012.1
2020-Mar-28 05:31N 52°47' E 003°14'3112.1
2020-Mar-28 02:56N 52°20' E 002°50'511.5
2020-Mar-28 02:31N 52°16' E 002°46'811.1
2020-Mar-28 01:49N 52°09' E 002°41'910.6
2020-Mar-28 00:58N 51°60' E 002°39'23 9.2
2020-Mar-27 22:30N 51°39' E 002°26'9 9.0
2020-Mar-27 21:30N 51°32' E 002°17'43 9.5
2020-Mar-27 17:00N 50°59' E 001°33'611.5
2020-Mar-27 16:30N 50°54' E 001°28'612.1
2020-Mar-27 16:00N 50°49' E 001°25'1411.4
2020-Mar-27 14:46N 50°36' E 001°14'8111.9
2020-Mar-27 07:59N 50°10' W 000°46'4610.2
2020-Mar-27 03:30N 49°58' W 001°55'6410.6
2020-Mar-26 21:29N 49°35' W 003°27'612.6
2020-Mar-26 21:00N 49°32' W 003°35'4012.9
2020-Mar-26 17:53N 49°13' W 004°29'81 9.7
2020-Mar-26 09:31N 48°02' W 005°29'010.7
2020-Mar-26 09:29N 48°02' W 005°29'1610.7
2020-Mar-26 07:59N 47°48' W 005°17'611.3
2020-Mar-26 07:26N 47°45' W 005°09'811.4
2020-Mar-26 06:45N 47°40' W 005°00'511.4
2020-Mar-26 06:21N 47°37' W 004°55'411.3
2020-Mar-26 06:00N 47°35' W 004°50'611.6
2020-Mar-26 05:31N 47°32' W 004°43'1211.9
2020-Mar-26 04:30N 47°25' W 004°29'1211.9
2020-Mar-26 03:31N 47°18' W 004°14'5512.1
2020-Mar-25 23:00N 46°46' W 003°10'8811.7
2020-Mar-25 15:30N 46°08' W 001°15'2 0.9
2020-Mar-25 13:29N 46°09' W 001°15'0 0.0
2020-Mar-25 12:59N 46°09' W 001°15'0 0.0
2020-Mar-25 10:26N 46°09' W 001°15'0 0.0
2020-Mar-25 08:29N 46°09' W 001°15'0 0.0
2020-Mar-25 07:59N 46°09' W 001°15'0 0.0
2020-Mar-25 05:29N 46°09' W 001°15'0 0.0
2020-Mar-25 01:29N 46°09' W 001°15'0 0.0
2020-Mar-25 00:59N 46°09' W 001°15'0 0.0
2020-Mar-25 00:29N 46°09' W 001°15'0 0.0
2020-Mar-24 22:59N 46°09' W 001°15'0 0.0
2020-Mar-24 21:29N 46°09' W 001°15'0 0.0
2020-Mar-24 19:59N 46°09' W 001°15'0 0.0
2020-Mar-24 19:29N 46°09' W 001°15'0 0.0
2020-Mar-24 18:53N 46°09' W 001°15'0 0.0
2020-Mar-24 17:29N 46°09' W 001°15'0 0.0
2020-Mar-24 16:59N 46°09' W 001°15'0 0.0
2020-Mar-24 15:29N 46°09' W 001°15'0 0.0
2020-Mar-24 13:59N 46°09' W 001°15'0 0.2
2020-Mar-24 13:30N 46°10' W 001°15'2 3.4
2020-Mar-24 13:00N 46°08' W 001°15'29 9.7
2020-Mar-24 09:59N 46°13' W 001°57'1912.3
2020-Mar-24 08:28N 46°21' W 002°21'512.0
2020-Mar-24 08:00N 46°24' W 002°28'612.3
2020-Mar-24 07:29N 46°28' W 002°36'2611.7
2020-Mar-24 05:14N 46°43' W 003°07'911.5
2020-Mar-24 04:30N 46°47' W 003°17'3511.6
2020-Mar-24 01:30N 47°07' W 003°59'1111.3
2020-Mar-24 00:30N 47°14' W 004°12'1311.3
2020-Mar-23 23:22N 47°21' W 004°28'  
Track history (hours):
 
Tides and Currents Weather Stations Pressure Air Temp Water Temp Dewpoint Dewpoint Depression Visibility Wind Speed Wind Dir Waves Ship Positions

Azamara Quest

Last reported at 2020-Apr-02 21:25 UTC. Time now 2020-Apr-02 22:26 UTC.
Position N 60°19' E 028°44'.

Length 184 m; draft 7 m.

Type: Tanker. MMSI: 538005401.

Date/timePositionNaut miles runAvg speedWind from/ knotsBaromVisibWave heightAir tempDewpointWater temp
2020-Apr-02 21:25N 60°19' E 028°44'0 0.0
2020-Apr-02 20:55N 60°19' E 028°44'0 0.0
2020-Apr-02 19:19N 60°19' E 028°44'0 0.0
2020-Apr-02 18:55N 60°19' E 028°44'0 0.0
2020-Apr-02 18:28N 60°19' E 028°44'0 0.0
2020-Apr-02 15:31N 60°19' E 028°44'10 5.0
2020-Apr-02 13:31N 60°09' E 028°39'10 6.3
2020-Apr-02 11:59N 60°01' E 028°29'0 0.0
2020-Apr-02 10:59N 60°01' E 028°29'0 0.0
2020-Apr-02 10:29N 60°01' E 028°29'0 0.0
2020-Apr-02 09:29N 60°01' E 028°29'0 0.0
2020-Apr-02 07:59N 60°01' E 028°29'0 0.0
2020-Apr-02 07:26N 60°01' E 028°29'2 1.1
2020-Apr-02 05:31N 60°03' E 028°26'29 9.7
2020-Apr-02 02:31N 60°05' E 027°28'611.3
2020-Apr-02 02:01N 60°03' E 027°18'3110.5
2020-Apr-01 23:01N 59°56' E 026°16'510.7
2020-Apr-01 22:30N 59°55' E 026°06'1110.9
2020-Apr-01 21:30N 59°52' E 025°45'610.9
2020-Apr-01 21:00N 59°51' E 025°34'2510.0
2020-Apr-01 18:31N 59°40' E 024°49'510.0
2020-Apr-01 18:01N 59°35' E 024°49'1 0.7
2020-Apr-01 17:00N 59°35' E 024°50'0 0.0
2020-Apr-01 16:24N 59°35' E 024°50'0 0.0
2020-Apr-01 10:30N 59°35' E 024°49'24 9.6
2020-Apr-01 08:00N 59°39' E 024°02'711.3
2020-Apr-01 07:24N 59°37' E 023°49'30112.1
2020-Mar-31 06:30N 56°09' E 016°59'1711.5
2020-Mar-31 05:00N 55°59' E 016°34'611.5
2020-Mar-31 04:30N 55°56' E 016°25'1211.9
2020-Mar-31 03:30N 55°50' E 016°07'3012.0
2020-Mar-31 01:00N 55°35' E 015°20'1812.0
2020-Mar-30 23:30N 55°27' E 014°51'6510.8
2020-Mar-30 17:30N 55°14' E 012°60'1211.6
2020-Mar-30 16:30N 55°17' E 012°40'19 9.7
2020-Mar-30 14:30N 55°36' E 012°51'5 9.1
2020-Mar-30 14:00N 55°39' E 012°56'2814.2
2020-Mar-30 12:01N 56°05' E 012°36'7710.0
2020-Mar-30 04:17N 57°14' E 011°33'2410.4
2020-Mar-30 02:00N 57°34' E 011°10'611.1
2020-Mar-30 01:30N 57°38' E 011°03'4010.0
2020-Mar-29 21:30N 57°48' E 009°50'1110.5
2020-Mar-29 20:30N 57°44' E 009°32'6310.5
2020-Mar-29 14:27N 57°06' E 007°58'275 9.1
2020-Mar-28 08:09N 53°16' E 003°35'2111.8
2020-Mar-28 06:19N 52°56' E 003°21'1012.1
2020-Mar-28 05:31N 52°47' E 003°14'3112.1
2020-Mar-28 02:56N 52°20' E 002°50'511.5
2020-Mar-28 02:31N 52°16' E 002°46'811.1
2020-Mar-28 01:49N 52°09' E 002°41'910.6
2020-Mar-28 00:58N 51°60' E 002°39'23 9.2
2020-Mar-27 22:30N 51°39' E 002°26'9 9.0
2020-Mar-27 21:30N 51°32' E 002°17'43 9.5
2020-Mar-27 17:00N 50°59' E 001°33'611.5
2020-Mar-27 16:30N 50°54' E 001°28'612.1
2020-Mar-27 16:00N 50°49' E 001°25'1411.4
2020-Mar-27 14:46N 50°36' E 001°14'8111.9
2020-Mar-27 07:59N 50°10' W 000°46'4610.2
2020-Mar-27 03:30N 49°58' W 001°55'6410.6
2020-Mar-26 21:29N 49°35' W 003°27'612.6
2020-Mar-26 21:00N 49°32' W 003°35'4012.9
2020-Mar-26 17:53N 49°13' W 004°29'81 9.7
2020-Mar-26 09:31N 48°02' W 005°29'010.7
2020-Mar-26 09:29N 48°02' W 005°29'1610.7
2020-Mar-26 07:59N 47°48' W 005°17'611.3
2020-Mar-26 07:26N 47°45' W 005°09'811.4
2020-Mar-26 06:45N 47°40' W 005°00'511.4
2020-Mar-26 06:21N 47°37' W 004°55'411.3
2020-Mar-26 06:00N 47°35' W 004°50'611.6
2020-Mar-26 05:31N 47°32' W 004°43'1211.9
2020-Mar-26 04:30N 47°25' W 004°29'1211.9
2020-Mar-26 03:31N 47°18' W 004°14'5512.1
2020-Mar-25 23:00N 46°46' W 003°10'8811.7
2020-Mar-25 15:30N 46°08' W 001°15'2 0.9
2020-Mar-25 13:29N 46°09' W 001°15'0 0.0
2020-Mar-25 12:59N 46°09' W 001°15'0 0.0
2020-Mar-25 10:26N 46°09' W 001°15'0 0.0
2020-Mar-25 08:29N 46°09' W 001°15'0 0.0
2020-Mar-25 07:59N 46°09' W 001°15'0 0.0
2020-Mar-25 05:29N 46°09' W 001°15'0 0.0
2020-Mar-25 01:29N 46°09' W 001°15'0 0.0
2020-Mar-25 00:59N 46°09' W 001°15'0 0.0
2020-Mar-25 00:29N 46°09' W 001°15'0 0.0
2020-Mar-24 22:59N 46°09' W 001°15'0 0.0
2020-Mar-24 21:29N 46°09' W 001°15'0 0.0
2020-Mar-24 19:59N 46°09' W 001°15'0 0.0
2020-Mar-24 19:29N 46°09' W 001°15'0 0.0
2020-Mar-24 18:53N 46°09' W 001°15'0 0.0
2020-Mar-24 17:29N 46°09' W 001°15'0 0.0
2020-Mar-24 16:59N 46°09' W 001°15'0 0.0
2020-Mar-24 15:29N 46°09' W 001°15'0 0.0
2020-Mar-24 13:59N 46°09' W 001°15'0 0.2
2020-Mar-24 13:30N 46°10' W 001°15'2 3.4
2020-Mar-24 13:00N 46°08' W 001°15'29 9.7
2020-Mar-24 09:59N 46°13' W 001°57'1912.3
2020-Mar-24 08:28N 46°21' W 002°21'512.0
2020-Mar-24 08:00N 46°24' W 002°28'612.3
2020-Mar-24 07:29N 46°28' W 002°36'2611.7
2020-Mar-24 05:14N 46°43' W 003°07'911.5
2020-Mar-24 04:30N 46°47' W 003°17'3511.6
2020-Mar-24 01:30N 47°07' W 003°59'1111.3
2020-Mar-24 00:30N 47°14' W 004°12'1311.3
2020-Mar-23 23:22N 47°21' W 004°28'  

Dump ship's entire track history